sensor_id;sensor_type;location;lat;lon;timestamp;P1;durP1;ratioP1;P2;durP2;ratioP2
10939;SDS011;5522;42.696;23.494;2023-04-08T00:02:09;22.02;;;16.33;;
10939;SDS011;5522;42.696;23.494;2023-04-08T00:04:36;20.73;;;15.57;;
10939;SDS011;5522;42.696;23.494;2023-04-08T00:07:02;18.98;;;14.82;;
10939;SDS011;5522;42.696;23.494;2023-04-08T00:09:30;18.17;;;13.57;;
10939;SDS011;5522;42.696;23.494;2023-04-08T00:11:57;19.17;;;15.52;;
10939;SDS011;5522;42.696;23.494;2023-04-08T00:14:25;19.45;;;14.55;;
10939;SDS011;5522;42.696;23.494;2023-04-08T00:16:52;20.38;;;17.00;;
10939;SDS011;5522;42.696;23.494;2023-04-08T00:19:18;21.88;;;17.67;;
10939;SDS011;5522;42.696;23.494;2023-04-08T00:21:45;20.55;;;16.42;;
10939;SDS011;5522;42.696;23.494;2023-04-08T00:24:12;19.90;;;16.73;;
10939;SDS011;5522;42.696;23.494;2023-04-08T00:26:39;20.85;;;16.27;;
10939;SDS011;5522;42.696;23.494;2023-04-08T00:29:06;20.52;;;15.95;;
10939;SDS011;5522;42.696;23.494;2023-04-08T00:31:34;21.42;;;16.90;;
10939;SDS011;5522;42.696;23.494;2023-04-08T00:34:01;21.30;;;17.20;;
10939;SDS011;5522;42.696;23.494;2023-04-08T00:36:28;22.65;;;17.63;;
10939;SDS011;5522;42.696;23.494;2023-04-08T00:38:55;20.55;;;17.35;;
10939;SDS011;5522;42.696;23.494;2023-04-08T00:41:21;20.02;;;16.83;;
10939;SDS011;5522;42.696;23.494;2023-04-08T00:43:48;23.88;;;18.83;;
10939;SDS011;5522;42.696;23.494;2023-04-08T00:46:15;25.98;;;17.80;;
10939;SDS011;5522;42.696;23.494;2023-04-08T00:48:43;23.83;;;17.50;;
10939;SDS011;5522;42.696;23.494;2023-04-08T00:51:10;23.40;;;16.90;;
10939;SDS011;5522;42.696;23.494;2023-04-08T00:53:38;24.80;;;17.23;;
10939;SDS011;5522;42.696;23.494;2023-04-08T00:56:04;23.30;;;16.05;;
10939;SDS011;5522;42.696;23.494;2023-04-08T00:58:31;20.60;;;15.20;;
10939;SDS011;5522;42.696;23.494;2023-04-08T01:06:12;19.77;;;14.80;;
10939;SDS011;5522;42.696;23.494;2023-04-08T01:08:52;19.23;;;14.55;;
10939;SDS011;5522;42.696;23.494;2023-04-08T01:11:19;28.77;;;15.40;;
10939;SDS011;5522;42.696;23.494;2023-04-08T01:13:46;17.88;;;13.65;;
10939;SDS011;5522;42.696;23.494;2023-04-08T01:16:16;15.27;;;12.48;;
10939;SDS011;5522;42.696;23.494;2023-04-08T01:18:44;18.48;;;13.93;;
10939;SDS011;5522;42.696;23.494;2023-04-08T01:21:15;18.08;;;14.30;;
10939;SDS011;5522;42.696;23.494;2023-04-08T01:23:45;22.33;;;15.27;;
10939;SDS011;5522;42.696;23.494;2023-04-08T01:26:26;87.75;;;40.38;;
10939;SDS011;5522;42.696;23.494;2023-04-08T01:28:54;47.75;;;28.35;;
10939;SDS011;5522;42.696;23.494;2023-04-08T01:31:23;25.02;;;18.17;;
10939;SDS011;5522;42.696;23.494;2023-04-08T01:33:51;18.98;;;15.23;;
10939;SDS011;5522;42.696;23.494;2023-04-08T01:36:20;120.68;;;46.15;;
10939;SDS011;5522;42.696;23.494;2023-04-08T01:38:48;22.42;;;15.48;;
10939;SDS011;5522;42.696;23.494;2023-04-08T01:41:16;15.35;;;12.43;;
10939;SDS011;5522;42.696;23.494;2023-04-08T01:43:46;16.52;;;12.43;;
10939;SDS011;5522;42.696;23.494;2023-04-08T01:46:14;16.17;;;12.20;;
10939;SDS011;5522;42.696;23.494;2023-04-08T01:48:42;13.82;;;11.80;;
10939;SDS011;5522;42.696;23.494;2023-04-08T01:51:10;15.32;;;11.75;;
10939;SDS011;5522;42.696;23.494;2023-04-08T01:53:38;13.85;;;11.63;;
10939;SDS011;5522;42.696;23.494;2023-04-08T01:56:06;16.40;;;11.75;;
10939;SDS011;5522;42.696;23.494;2023-04-08T01:58:38;12.52;;;10.90;;
10939;SDS011;5522;42.696;23.494;2023-04-08T02:01:10;16.33;;;12.32;;
10939;SDS011;5522;42.696;23.494;2023-04-08T02:03:40;18.35;;;11.60;;
10939;SDS011;5522;42.696;23.494;2023-04-08T02:06:09;14.07;;;11.65;;
10939;SDS011;5522;42.696;23.494;2023-04-08T02:08:36;15.90;;;12.10;;
10939;SDS011;5522;42.696;23.494;2023-04-08T02:11:03;16.70;;;11.80;;
10939;SDS011;5522;42.696;23.494;2023-04-08T02:13:30;15.23;;;13.52;;
10939;SDS011;5522;42.696;23.494;2023-04-08T02:16:02;15.30;;;13.13;;
10939;SDS011;5522;42.696;23.494;2023-04-08T02:18:31;16.15;;;12.32;;
10939;SDS011;5522;42.696;23.494;2023-04-08T02:21:06;17.10;;;13.07;;
10939;SDS011;5522;42.696;23.494;2023-04-08T02:23:37;17.55;;;13.18;;
10939;SDS011;5522;42.696;23.494;2023-04-08T02:26:06;17.27;;;13.60;;
10939;SDS011;5522;42.696;23.494;2023-04-08T02:28:38;18.83;;;13.32;;
10939;SDS011;5522;42.696;23.494;2023-04-08T02:31:07;18.15;;;12.98;;
10939;SDS011;5522;42.696;23.494;2023-04-08T02:33:39;16.77;;;11.95;;
10939;SDS011;5522;42.696;23.494;2023-04-08T02:36:07;18.42;;;13.20;;
10939;SDS011;5522;42.696;23.494;2023-04-08T02:38:34;14.48;;;11.25;;
10939;SDS011;5522;42.696;23.494;2023-04-08T02:41:01;20.13;;;13.98;;
10939;SDS011;5522;42.696;23.494;2023-04-08T02:43:28;16.27;;;13.70;;
10939;SDS011;5522;42.696;23.494;2023-04-08T02:45:56;17.10;;;12.90;;
10939;SDS011;5522;42.696;23.494;2023-04-08T02:48:24;15.55;;;11.75;;
10939;SDS011;5522;42.696;23.494;2023-04-08T02:50:53;16.48;;;12.15;;
10939;SDS011;5522;42.696;23.494;2023-04-08T02:53:21;15.90;;;11.95;;
10939;SDS011;5522;42.696;23.494;2023-04-08T02:55:48;14.63;;;10.70;;
10939;SDS011;5522;42.696;23.494;2023-04-08T02:58:15;15.45;;;12.93;;
10939;SDS011;5522;42.696;23.494;2023-04-08T03:00:42;16.20;;;13.07;;
10939;SDS011;5522;42.696;23.494;2023-04-08T03:03:09;13.02;;;10.45;;
10939;SDS011;5522;42.696;23.494;2023-04-08T03:05:35;12.57;;;11.05;;
10939;SDS011;5522;42.696;23.494;2023-04-08T03:08:04;10.05;;;9.00;;
10939;SDS011;5522;42.696;23.494;2023-04-08T03:10:31;14.07;;;9.63;;
10939;SDS011;5522;42.696;23.494;2023-04-08T03:12:58;12.40;;;11.00;;
10939;SDS011;5522;42.696;23.494;2023-04-08T03:15:24;12.15;;;10.05;;
10939;SDS011;5522;42.696;23.494;2023-04-08T03:17:51;12.38;;;10.35;;
10939;SDS011;5522;42.696;23.494;2023-04-08T03:20:18;14.15;;;10.32;;
10939;SDS011;5522;42.696;23.494;2023-04-08T03:22:45;13.52;;;9.82;;
10939;SDS011;5522;42.696;23.494;2023-04-08T03:25:13;13.45;;;10.00;;
10939;SDS011;5522;42.696;23.494;2023-04-08T03:27:40;15.55;;;10.23;;
10939;SDS011;5522;42.696;23.494;2023-04-08T03:30:07;11.13;;;9.88;;
10939;SDS011;5522;42.696;23.494;2023-04-08T03:32:34;11.60;;;9.13;;
10939;SDS011;5522;42.696;23.494;2023-04-08T03:35:01;10.98;;;9.73;;
10939;SDS011;5522;42.696;23.494;2023-04-08T03:37:28;11.05;;;9.68;;
10939;SDS011;5522;42.696;23.494;2023-04-08T03:39:54;9.95;;;8.63;;
10939;SDS011;5522;42.696;23.494;2023-04-08T03:42:23;11.32;;;8.48;;
10939;SDS011;5522;42.696;23.494;2023-04-08T03:44:50;13.45;;;8.65;;
10939;SDS011;5522;42.696;23.494;2023-04-08T03:47:16;13.15;;;8.48;;
10939;SDS011;5522;42.696;23.494;2023-04-08T03:49:43;8.60;;;7.72;;
10939;SDS011;5522;42.696;23.494;2023-04-08T03:52:10;9.38;;;7.78;;
10939;SDS011;5522;42.696;23.494;2023-04-08T03:54:37;10.90;;;8.85;;
10939;SDS011;5522;42.696;23.494;2023-04-08T03:57:03;21.20;;;15.18;;
10939;SDS011;5522;42.696;23.494;2023-04-08T03:59:32;27.55;;;21.33;;
10939;SDS011;5522;42.696;23.494;2023-04-08T04:02:00;18.75;;;15.60;;
10939;SDS011;5522;42.696;23.494;2023-04-08T04:04:27;17.33;;;14.90;;
10939;SDS011;5522;42.696;23.494;2023-04-08T04:06:54;15.90;;;12.68;;
10939;SDS011;5522;42.696;23.494;2023-04-08T04:09:20;10.60;;;8.73;;
10939;SDS011;5522;42.696;23.494;2023-04-08T04:11:47;7.95;;;6.88;;
10939;SDS011;5522;42.696;23.494;2023-04-08T04:14:14;18.33;;;7.88;;
10939;SDS011;5522;42.696;23.494;2023-04-08T04:16:42;7.68;;;6.78;;
10939;SDS011;5522;42.696;23.494;2023-04-08T04:19:09;8.10;;;7.13;;
10939;SDS011;5522;42.696;23.494;2023-04-08T04:21:36;8.23;;;7.43;;
10939;SDS011;5522;42.696;23.494;2023-04-08T04:24:03;7.53;;;6.82;;
10939;SDS011;5522;42.696;23.494;2023-04-08T04:26:30;8.95;;;6.70;;
10939;SDS011;5522;42.696;23.494;2023-04-08T04:28:57;7.45;;;6.55;;
10939;SDS011;5522;42.696;23.494;2023-04-08T04:31:24;7.68;;;6.88;;
10939;SDS011;5522;42.696;23.494;2023-04-08T04:33:52;7.43;;;6.75;;
10939;SDS011;5522;42.696;23.494;2023-04-08T04:36:20;9.45;;;6.88;;
10939;SDS011;5522;42.696;23.494;2023-04-08T04:38:48;7.38;;;6.53;;
10939;SDS011;5522;42.696;23.494;2023-04-08T04:41:14;10.13;;;6.72;;
10939;SDS011;5522;42.696;23.494;2023-04-08T04:43:42;8.38;;;7.57;;
10939;SDS011;5522;42.696;23.494;2023-04-08T04:46:09;10.80;;;7.80;;
10939;SDS011;5522;42.696;23.494;2023-04-08T04:48:36;10.75;;;7.15;;
10939;SDS011;5522;42.696;23.494;2023-04-08T04:51:04;10.55;;;8.52;;
10939;SDS011;5522;42.696;23.494;2023-04-08T04:53:31;7.88;;;6.93;;
10939;SDS011;5522;42.696;23.494;2023-04-08T04:55:58;8.07;;;7.28;;
10939;SDS011;5522;42.696;23.494;2023-04-08T04:58:26;8.23;;;7.53;;
10939;SDS011;5522;42.696;23.494;2023-04-08T05:00:53;8.80;;;7.05;;
10939;SDS011;5522;42.696;23.494;2023-04-08T05:03:20;8.55;;;6.97;;
10939;SDS011;5522;42.696;23.494;2023-04-08T05:05:49;8.23;;;6.93;;
10939;SDS011;5522;42.696;23.494;2023-04-08T05:08:18;11.02;;;7.30;;
10939;SDS011;5522;42.696;23.494;2023-04-08T05:10:45;10.45;;;7.22;;
10939;SDS011;5522;42.696;23.494;2023-04-08T05:13:14;8.05;;;7.25;;
10939;SDS011;5522;42.696;23.494;2023-04-08T05:15:41;8.25;;;7.38;;
10939;SDS011;5522;42.696;23.494;2023-04-08T05:18:09;10.07;;;6.82;;
10939;SDS011;5522;42.696;23.494;2023-04-08T05:20:36;7.68;;;6.88;;
10939;SDS011;5522;42.696;23.494;2023-04-08T05:23:03;7.95;;;7.05;;
10939;SDS011;5522;42.696;23.494;2023-04-08T05:25:31;8.00;;;7.20;;
10939;SDS011;5522;42.696;23.494;2023-04-08T05:27:58;8.00;;;5.85;;
10939;SDS011;5522;42.696;23.494;2023-04-08T05:30:25;8.52;;;7.22;;
10939;SDS011;5522;42.696;23.494;2023-04-08T05:32:52;8.38;;;7.18;;
10939;SDS011;5522;42.696;23.494;2023-04-08T05:35:19;6.95;;;6.25;;
10939;SDS011;5522;42.696;23.494;2023-04-08T05:37:45;8.27;;;7.40;;
10939;SDS011;5522;42.696;23.494;2023-04-08T05:40:12;8.35;;;5.68;;
10939;SDS011;5522;42.696;23.494;2023-04-08T05:42:40;8.48;;;6.10;;
10939;SDS011;5522;42.696;23.494;2023-04-08T05:45:08;7.97;;;6.80;;
10939;SDS011;5522;42.696;23.494;2023-04-08T05:47:35;7.88;;;7.07;;
10939;SDS011;5522;42.696;23.494;2023-04-08T05:50:02;10.80;;;8.38;;
10939;SDS011;5522;42.696;23.494;2023-04-08T05:52:29;11.25;;;7.95;;
10939;SDS011;5522;42.696;23.494;2023-04-08T05:54:56;10.25;;;7.72;;
10939;SDS011;5522;42.696;23.494;2023-04-08T05:57:23;10.00;;;8.55;;
10939;SDS011;5522;42.696;23.494;2023-04-08T05:59:51;7.72;;;7.03;;
10939;SDS011;5522;42.696;23.494;2023-04-08T06:02:18;9.10;;;8.05;;
10939;SDS011;5522;42.696;23.494;2023-04-08T06:04:45;9.15;;;8.18;;
10939;SDS011;5522;42.696;23.494;2023-04-08T06:07:11;9.13;;;8.23;;
10939;SDS011;5522;42.696;23.494;2023-04-08T06:09:38;11.35;;;8.60;;
10939;SDS011;5522;42.696;23.494;2023-04-08T06:12:05;15.48;;;10.07;;
10939;SDS011;5522;42.696;23.494;2023-04-08T06:14:32;9.15;;;8.20;;
10939;SDS011;5522;42.696;23.494;2023-04-08T06:17:00;9.38;;;8.23;;
10939;SDS011;5522;42.696;23.494;2023-04-08T06:19:26;11.38;;;8.00;;
10939;SDS011;5522;42.696;23.494;2023-04-08T06:21:53;10.77;;;8.38;;
10939;SDS011;5522;42.696;23.494;2023-04-08T06:24:23;9.07;;;7.55;;
10939;SDS011;5522;42.696;23.494;2023-04-08T06:26:50;12.48;;;9.25;;
10939;SDS011;5522;42.696;23.494;2023-04-08T06:29:18;11.60;;;8.10;;
10939;SDS011;5522;42.696;23.494;2023-04-08T06:31:45;8.48;;;7.65;;
10939;SDS011;5522;42.696;23.494;2023-04-08T06:34:13;9.13;;;8.10;;
10939;SDS011;5522;42.696;23.494;2023-04-08T06:36:40;10.00;;;8.50;;
10939;SDS011;5522;42.696;23.494;2023-04-08T06:39:07;11.05;;;7.93;;
10939;SDS011;5522;42.696;23.494;2023-04-08T06:41:33;8.23;;;7.53;;
10939;SDS011;5522;42.696;23.494;2023-04-08T06:44:00;7.90;;;7.10;;
10939;SDS011;5522;42.696;23.494;2023-04-08T06:46:27;7.82;;;7.13;;
10939;SDS011;5522;42.696;23.494;2023-04-08T06:48:54;8.05;;;7.25;;
10939;SDS011;5522;42.696;23.494;2023-04-08T06:51:22;9.00;;;7.72;;
10939;SDS011;5522;42.696;23.494;2023-04-08T06:53:49;8.20;;;7.40;;
10939;SDS011;5522;42.696;23.494;2023-04-08T06:56:16;9.63;;;8.32;;
10939;SDS011;5522;42.696;23.494;2023-04-08T06:58:45;11.00;;;8.93;;
10939;SDS011;5522;42.696;23.494;2023-04-08T07:01:12;9.02;;;7.72;;
10939;SDS011;5522;42.696;23.494;2023-04-08T07:03:40;10.95;;;8.48;;
10939;SDS011;5522;42.696;23.494;2023-04-08T07:06:07;9.85;;;8.52;;
10939;SDS011;5522;42.696;23.494;2023-04-08T07:08:35;9.93;;;7.90;;
10939;SDS011;5522;42.696;23.494;2023-04-08T07:11:02;8.60;;;7.80;;
10939;SDS011;5522;42.696;23.494;2023-04-08T07:13:29;8.52;;;7.38;;
10939;SDS011;5522;42.696;23.494;2023-04-08T07:15:56;9.32;;;7.07;;
10939;SDS011;5522;42.696;23.494;2023-04-08T07:18:23;11.38;;;7.85;;
10939;SDS011;5522;42.696;23.494;2023-04-08T07:20:50;8.27;;;7.47;;
10939;SDS011;5522;42.696;23.494;2023-04-08T07:23:18;8.68;;;6.75;;
10939;SDS011;5522;42.696;23.494;2023-04-08T07:25:46;10.90;;;7.72;;
10939;SDS011;5522;42.696;23.494;2023-04-08T07:28:13;7.93;;;7.20;;
10939;SDS011;5522;42.696;23.494;2023-04-08T07:30:40;10.82;;;9.73;;
10939;SDS011;5522;42.696;23.494;2023-04-08T07:33:07;10.85;;;7.90;;
10939;SDS011;5522;42.696;23.494;2023-04-08T07:35:33;8.82;;;7.40;;
10939;SDS011;5522;42.696;23.494;2023-04-08T07:38:00;11.25;;;8.18;;
10939;SDS011;5522;42.696;23.494;2023-04-08T07:40:27;10.05;;;7.88;;
10939;SDS011;5522;42.696;23.494;2023-04-08T07:42:56;9.85;;;7.88;;
10939;SDS011;5522;42.696;23.494;2023-04-08T07:45:23;9.45;;;8.07;;
10939;SDS011;5522;42.696;23.494;2023-04-08T07:47:50;9.65;;;8.13;;
10939;SDS011;5522;42.696;23.494;2023-04-08T07:50:16;15.68;;;10.23;;
10939;SDS011;5522;42.696;23.494;2023-04-08T07:52:43;9.20;;;8.30;;
10939;SDS011;5522;42.696;23.494;2023-04-08T07:55:10;13.27;;;9.45;;
10939;SDS011;5522;42.696;23.494;2023-04-08T07:57:37;16.33;;;10.27;;
10939;SDS011;5522;42.696;23.494;2023-04-08T08:00:06;14.10;;;10.77;;
10939;SDS011;5522;42.696;23.494;2023-04-08T08:02:33;11.65;;;8.93;;
10939;SDS011;5522;42.696;23.494;2023-04-08T08:05:00;16.65;;;9.63;;
10939;SDS011;5522;42.696;23.494;2023-04-08T08:07:28;13.45;;;8.57;;
10939;SDS011;5522;42.696;23.494;2023-04-08T08:09:55;13.35;;;9.23;;
10939;SDS011;5522;42.696;23.494;2023-04-08T08:12:22;12.75;;;9.32;;
10939;SDS011;5522;42.696;23.494;2023-04-08T08:14:49;12.35;;;9.15;;
10939;SDS011;5522;42.696;23.494;2023-04-08T08:17:20;12.90;;;9.85;;
10939;SDS011;5522;42.696;23.494;2023-04-08T08:19:47;12.07;;;10.05;;
10939;SDS011;5522;42.696;23.494;2023-04-08T08:22:13;12.65;;;9.75;;
10939;SDS011;5522;42.696;23.494;2023-04-08T08:24:40;13.05;;;9.30;;
10939;SDS011;5522;42.696;23.494;2023-04-08T08:27:08;13.77;;;9.80;;
10939;SDS011;5522;42.696;23.494;2023-04-08T08:29:36;14.40;;;10.57;;
10939;SDS011;5522;42.696;23.494;2023-04-08T08:32:03;14.52;;;10.15;;
10939;SDS011;5522;42.696;23.494;2023-04-08T08:34:31;15.88;;;10.40;;
10939;SDS011;5522;42.696;23.494;2023-04-08T08:36:58;14.60;;;11.30;;
10939;SDS011;5522;42.696;23.494;2023-04-08T08:39:25;13.07;;;9.73;;
10939;SDS011;5522;42.696;23.494;2023-04-08T08:41:52;13.35;;;9.80;;
10939;SDS011;5522;42.696;23.494;2023-04-08T08:44:20;15.02;;;11.27;;
10939;SDS011;5522;42.696;23.494;2023-04-08T08:46:47;11.90;;;9.63;;
10939;SDS011;5522;42.696;23.494;2023-04-08T08:49:14;12.82;;;9.98;;
10939;SDS011;5522;42.696;23.494;2023-04-08T08:51:42;14.60;;;10.50;;
10939;SDS011;5522;42.696;23.494;2023-04-08T08:54:11;13.15;;;9.48;;
10939;SDS011;5522;42.696;23.494;2023-04-08T08:56:40;13.73;;;9.80;;
10939;SDS011;5522;42.696;23.494;2023-04-08T08:59:07;11.75;;;9.20;;
10939;SDS011;5522;42.696;23.494;2023-04-08T09:01:35;13.18;;;9.73;;
10939;SDS011;5522;42.696;23.494;2023-04-08T09:04:09;11.45;;;9.55;;
10939;SDS011;5522;42.696;23.494;2023-04-08T09:06:38;10.85;;;8.55;;
10939;SDS011;5522;42.696;23.494;2023-04-08T09:09:06;12.68;;;8.27;;
10939;SDS011;5522;42.696;23.494;2023-04-08T09:11:35;12.23;;;9.13;;
10939;SDS011;5522;42.696;23.494;2023-04-08T09:14:03;12.18;;;9.35;;
10939;SDS011;5522;42.696;23.494;2023-04-08T09:16:31;13.93;;;9.23;;
10939;SDS011;5522;42.696;23.494;2023-04-08T09:19:07;12.13;;;9.23;;
10939;SDS011;5522;42.696;23.494;2023-04-08T09:21:35;13.93;;;10.10;;
10939;SDS011;5522;42.696;23.494;2023-04-08T09:24:02;13.93;;;8.43;;
10939;SDS011;5522;42.696;23.494;2023-04-08T09:26:31;10.68;;;8.75;;
10939;SDS011;5522;42.696;23.494;2023-04-08T09:28:58;13.85;;;9.40;;
10939;SDS011;5522;42.696;23.494;2023-04-08T09:31:27;12.57;;;9.77;;
10939;SDS011;5522;42.696;23.494;2023-04-08T09:33:55;14.60;;;9.57;;
10939;SDS011;5522;42.696;23.494;2023-04-08T09:36:24;13.45;;;9.80;;
10939;SDS011;5522;42.696;23.494;2023-04-08T09:38:52;12.15;;;9.55;;
10939;SDS011;5522;42.696;23.494;2023-04-08T09:41:20;14.00;;;9.18;;
10939;SDS011;5522;42.696;23.494;2023-04-08T09:43:50;15.02;;;10.02;;
10939;SDS011;5522;42.696;23.494;2023-04-08T09:46:23;13.23;;;9.00;;
10939;SDS011;5522;42.696;23.494;2023-04-08T09:48:55;15.65;;;10.57;;
10939;SDS011;5522;42.696;23.494;2023-04-08T09:51:28;14.80;;;10.02;;
10939;SDS011;5522;42.696;23.494;2023-04-08T09:54:00;12.23;;;8.73;;
10939;SDS011;5522;42.696;23.494;2023-04-08T09:56:30;9.70;;;7.13;;
10939;SDS011;5522;42.696;23.494;2023-04-08T09:59:12;11.57;;;9.20;;
10939;SDS011;5522;42.696;23.494;2023-04-08T10:01:43;10.45;;;8.05;;
10939;SDS011;5522;42.696;23.494;2023-04-08T10:04:13;12.30;;;9.30;;
10939;SDS011;5522;42.696;23.494;2023-04-08T10:06:42;10.43;;;8.82;;
10939;SDS011;5522;42.696;23.494;2023-04-08T10:09:09;10.35;;;8.65;;
10939;SDS011;5522;42.696;23.494;2023-04-08T10:11:36;11.43;;;7.57;;
10939;SDS011;5522;42.696;23.494;2023-04-08T10:14:04;9.40;;;8.40;;
10939;SDS011;5522;42.696;23.494;2023-04-08T10:16:32;12.10;;;8.60;;
10939;SDS011;5522;42.696;23.494;2023-04-08T10:18:59;8.55;;;7.60;;
10939;SDS011;5522;42.696;23.494;2023-04-08T10:21:33;9.10;;;8.18;;
10939;SDS011;5522;42.696;23.494;2023-04-08T10:24:01;10.23;;;8.90;;
10939;SDS011;5522;42.696;23.494;2023-04-08T10:26:38;10.48;;;8.25;;
10939;SDS011;5522;42.696;23.494;2023-04-08T10:29:30;10.80;;;7.47;;
10939;SDS011;5522;42.696;23.494;2023-04-08T10:31:59;11.73;;;8.27;;
10939;SDS011;5522;42.696;23.494;2023-04-08T10:34:27;11.65;;;8.43;;
10939;SDS011;5522;42.696;23.494;2023-04-08T10:36:55;14.98;;;10.38;;
10939;SDS011;5522;42.696;23.494;2023-04-08T10:39:26;10.80;;;7.57;;
10939;SDS011;5522;42.696;23.494;2023-04-08T10:41:52;8.38;;;7.50;;
10939;SDS011;5522;42.696;23.494;2023-04-08T10:44:21;11.88;;;8.13;;
10939;SDS011;5522;42.696;23.494;2023-04-08T10:46:49;11.20;;;7.30;;
10939;SDS011;5522;42.696;23.494;2023-04-08T10:49:18;10.82;;;8.73;;
10939;SDS011;5522;42.696;23.494;2023-04-08T10:51:46;13.80;;;9.27;;
10939;SDS011;5522;42.696;23.494;2023-04-08T10:54:13;8.85;;;7.68;;
10939;SDS011;5522;42.696;23.494;2023-04-08T10:56:46;10.45;;;8.80;;
10939;SDS011;5522;42.696;23.494;2023-04-08T10:59:14;10.27;;;8.73;;
10939;SDS011;5522;42.696;23.494;2023-04-08T11:01:42;9.93;;;8.13;;
10939;SDS011;5522;42.696;23.494;2023-04-08T11:04:11;10.15;;;7.80;;
10939;SDS011;5522;42.696;23.494;2023-04-08T11:06:40;9.25;;;7.85;;
10939;SDS011;5522;42.696;23.494;2023-04-08T11:09:08;11.52;;;7.57;;
10939;SDS011;5522;42.696;23.494;2023-04-08T11:11:34;7.15;;;6.45;;
10939;SDS011;5522;42.696;23.494;2023-04-08T11:14:01;9.13;;;8.02;;
10939;SDS011;5522;42.696;23.494;2023-04-08T11:16:29;8.88;;;7.97;;
10939;SDS011;5522;42.696;23.494;2023-04-08T11:18:56;11.10;;;8.02;;
10939;SDS011;5522;42.696;23.494;2023-04-08T11:21:24;9.30;;;6.82;;
10939;SDS011;5522;42.696;23.494;2023-04-08T11:23:54;8.63;;;7.80;;
10939;SDS011;5522;42.696;23.494;2023-04-08T11:26:21;7.10;;;6.50;;
10939;SDS011;5522;42.696;23.494;2023-04-08T11:28:49;7.28;;;6.57;;
10939;SDS011;5522;42.696;23.494;2023-04-08T11:31:17;10.25;;;6.63;;
10939;SDS011;5522;42.696;23.494;2023-04-08T11:33:45;6.25;;;5.55;;
10939;SDS011;5522;42.696;23.494;2023-04-08T11:36:12;5.50;;;5.00;;
10939;SDS011;5522;42.696;23.494;2023-04-08T11:38:39;6.68;;;6.05;;
10939;SDS011;5522;42.696;23.494;2023-04-08T11:41:08;6.63;;;5.60;;
10939;SDS011;5522;42.696;23.494;2023-04-08T11:43:36;6.75;;;5.72;;
10939;SDS011;5522;42.696;23.494;2023-04-08T11:46:08;4.10;;;3.80;;
10939;SDS011;5522;42.696;23.494;2023-04-08T11:48:36;6.07;;;4.63;;
10939;SDS011;5522;42.696;23.494;2023-04-08T11:51:04;4.20;;;4.00;;
10939;SDS011;5522;42.696;23.494;2023-04-08T11:53:34;5.43;;;4.65;;
10939;SDS011;5522;42.696;23.494;2023-04-08T11:58:48;4.25;;;3.97;;
10939;SDS011;5522;42.696;23.494;2023-04-08T12:01:16;5.07;;;4.57;;
10939;SDS011;5522;42.696;23.494;2023-04-08T12:03:53;5.63;;;5.22;;
10939;SDS011;5522;42.696;23.494;2023-04-08T12:06:20;6.60;;;5.80;;
10939;SDS011;5522;42.696;23.494;2023-04-08T12:08:47;6.57;;;5.63;;
10939;SDS011;5522;42.696;23.494;2023-04-08T12:11:14;7.90;;;6.30;;
10939;SDS011;5522;42.696;23.494;2023-04-08T12:13:42;7.03;;;6.32;;
10939;SDS011;5522;42.696;23.494;2023-04-08T12:16:09;6.30;;;5.70;;
10939;SDS011;5522;42.696;23.494;2023-04-08T12:18:36;6.30;;;5.78;;
10939;SDS011;5522;42.696;23.494;2023-04-08T12:21:03;5.82;;;4.72;;
10939;SDS011;5522;42.696;23.494;2023-04-08T12:23:30;3.30;;;2.50;;
10939;SDS011;5522;42.696;23.494;2023-04-08T12:25:57;2.67;;;2.58;;
10939;SDS011;5522;42.696;23.494;2023-04-08T12:28:23;1.95;;;1.85;;
10939;SDS011;5522;42.696;23.494;2023-04-08T12:30:52;4.25;;;1.63;;
10939;SDS011;5522;42.696;23.494;2023-04-08T12:33:18;1.60;;;1.50;;
10939;SDS011;5522;42.696;23.494;2023-04-08T12:35:45;2.20;;;2.03;;
10939;SDS011;5522;42.696;23.494;2023-04-08T12:38:12;2.13;;;2.03;;
10939;SDS011;5522;42.696;23.494;2023-04-08T12:40:39;2.13;;;1.92;;
10939;SDS011;5522;42.696;23.494;2023-04-08T12:43:06;2.60;;;2.40;;
10939;SDS011;5522;42.696;23.494;2023-04-08T12:45:33;2.55;;;2.35;;
10939;SDS011;5522;42.696;23.494;2023-04-08T12:48:02;2.55;;;2.35;;
10939;SDS011;5522;42.696;23.494;2023-04-08T12:50:29;11.82;;;7.32;;
10939;SDS011;5522;42.696;23.494;2023-04-08T12:52:56;14.13;;;8.73;;
10939;SDS011;5522;42.696;23.494;2023-04-08T12:55:23;6.88;;;4.35;;
10939;SDS011;5522;42.696;23.494;2023-04-08T12:57:50;4.68;;;3.95;;
10939;SDS011;5522;42.696;23.494;2023-04-08T13:00:17;8.73;;;7.53;;
10939;SDS011;5522;42.696;23.494;2023-04-08T13:02:44;9.98;;;7.30;;
10939;SDS011;5522;42.696;23.494;2023-04-08T13:05:12;3.85;;;3.65;;
10939;SDS011;5522;42.696;23.494;2023-04-08T13:07:39;2.53;;;2.33;;
10939;SDS011;5522;42.696;23.494;2023-04-08T13:10:07;2.28;;;2.17;;
10939;SDS011;5522;42.696;23.494;2023-04-08T13:12:34;2.88;;;2.67;;
10939;SDS011;5522;42.696;23.494;2023-04-08T13:15:03;2.83;;;2.58;;
10939;SDS011;5522;42.696;23.494;2023-04-08T13:17:30;3.75;;;2.75;;
10939;SDS011;5522;42.696;23.494;2023-04-08T13:19:58;3.10;;;2.88;;
10939;SDS011;5522;42.696;23.494;2023-04-08T13:22:26;2.75;;;2.55;;
10939;SDS011;5522;42.696;23.494;2023-04-08T13:24:52;3.92;;;2.45;;
10939;SDS011;5522;42.696;23.494;2023-04-08T13:27:19;3.42;;;3.33;;
10939;SDS011;5522;42.696;23.494;2023-04-08T13:29:46;3.05;;;2.95;;
10939;SDS011;5522;42.696;23.494;2023-04-08T13:32:13;3.83;;;3.53;;
10939;SDS011;5522;42.696;23.494;2023-04-08T13:34:40;3.08;;;2.78;;
10939;SDS011;5522;42.696;23.494;2023-04-08T13:37:07;2.70;;;2.60;;
10939;SDS011;5522;42.696;23.494;2023-04-08T13:39:36;5.35;;;3.15;;
10939;SDS011;5522;42.696;23.494;2023-04-08T13:42:03;4.50;;;3.90;;
10939;SDS011;5522;42.696;23.494;2023-04-08T13:44:29;4.05;;;3.22;;
10939;SDS011;5522;42.696;23.494;2023-04-08T13:46:57;3.85;;;3.55;;
10939;SDS011;5522;42.696;23.494;2023-04-08T13:49:24;4.57;;;3.35;;
10939;SDS011;5522;42.696;23.494;2023-04-08T13:51:51;4.15;;;3.28;;
10939;SDS011;5522;42.696;23.494;2023-04-08T13:54:18;3.70;;;3.40;;
10939;SDS011;5522;42.696;23.494;2023-04-08T13:56:46;4.07;;;3.78;;
10939;SDS011;5522;42.696;23.494;2023-04-08T13:59:13;3.88;;;3.58;;
10939;SDS011;5522;42.696;23.494;2023-04-08T14:01:40;3.42;;;3.22;;
10939;SDS011;5522;42.696;23.494;2023-04-08T14:04:07;2.45;;;2.28;;
10939;SDS011;5522;42.696;23.494;2023-04-08T14:06:33;3.47;;;3.22;;
10939;SDS011;5522;42.696;23.494;2023-04-08T14:09:01;4.65;;;3.78;;
10939;SDS011;5522;42.696;23.494;2023-04-08T14:11:28;4.30;;;3.80;;
10939;SDS011;5522;42.696;23.494;2023-04-08T14:13:56;4.40;;;4.05;;
10939;SDS011;5522;42.696;23.494;2023-04-08T14:16:23;3.13;;;2.92;;
10939;SDS011;5522;42.696;23.494;2023-04-08T14:18:51;12.38;;;10.00;;
10939;SDS011;5522;42.696;23.494;2023-04-08T14:21:18;10.40;;;7.18;;
10939;SDS011;5522;42.696;23.494;2023-04-08T14:23:44;10.00;;;9.00;;
10939;SDS011;5522;42.696;23.494;2023-04-08T14:26:13;9.32;;;8.13;;
10939;SDS011;5522;42.696;23.494;2023-04-08T14:28:40;6.70;;;6.05;;
10939;SDS011;5522;42.696;23.494;2023-04-08T14:31:08;7.47;;;6.75;;
10939;SDS011;5522;42.696;23.494;2023-04-08T14:33:36;10.13;;;8.77;;
10939;SDS011;5522;42.696;23.494;2023-04-08T14:36:03;8.10;;;7.32;;
10939;SDS011;5522;42.696;23.494;2023-04-08T14:38:32;11.23;;;10.13;;
10939;SDS011;5522;42.696;23.494;2023-04-08T14:40:59;7.05;;;6.43;;
10939;SDS011;5522;42.696;23.494;2023-04-08T14:43:26;6.13;;;5.57;;
10939;SDS011;5522;42.696;23.494;2023-04-08T14:45:53;6.78;;;6.15;;
10939;SDS011;5522;42.696;23.494;2023-04-08T14:48:21;6.30;;;5.70;;